sensor_id;sensor_type;location;lat;lon;timestamp;P1;durP1;ratioP1;P2;durP2;ratioP2
34278;SDS011;20538;51.528;9.942;2023-05-23T00:01:45;21.83;;;15.50;;
34278;SDS011;20538;51.528;9.942;2023-05-23T00:04:11;21.17;;;15.18;;
34278;SDS011;20538;51.528;9.942;2023-05-23T00:06:42;22.10;;;15.75;;
34278;SDS011;20538;51.528;9.942;2023-05-23T00:09:13;24.45;;;16.67;;
34278;SDS011;20538;51.528;9.942;2023-05-23T00:11:39;24.58;;;15.75;;
34278;SDS011;20538;51.528;9.942;2023-05-23T00:14:09;21.92;;;15.98;;
34278;SDS011;20538;51.528;9.942;2023-05-23T00:16:37;27.40;;;17.15;;
34278;SDS011;20538;51.528;9.942;2023-05-23T00:19:05;24.15;;;16.58;;
34278;SDS011;20538;51.528;9.942;2023-05-23T00:21:30;25.73;;;16.17;;
34278;SDS011;20538;51.528;9.942;2023-05-23T00:23:57;25.23;;;16.42;;
34278;SDS011;20538;51.528;9.942;2023-05-23T00:26:23;25.95;;;15.70;;
34278;SDS011;20538;51.528;9.942;2023-05-23T00:28:49;23.38;;;15.52;;
34278;SDS011;20538;51.528;9.942;2023-05-23T00:31:14;24.48;;;17.00;;
34278;SDS011;20538;51.528;9.942;2023-05-23T00:33:41;20.23;;;14.75;;
34278;SDS011;20538;51.528;9.942;2023-05-23T00:36:07;21.02;;;14.82;;
34278;SDS011;20538;51.528;9.942;2023-05-23T00:38:33;21.80;;;15.45;;
34278;SDS011;20538;51.528;9.942;2023-05-23T00:40:59;20.65;;;14.48;;
34278;SDS011;20538;51.528;9.942;2023-05-23T00:43:25;20.80;;;14.70;;
34278;SDS011;20538;51.528;9.942;2023-05-23T00:45:51;23.20;;;14.60;;
34278;SDS011;20538;51.528;9.942;2023-05-23T00:48:17;18.95;;;12.75;;
34278;SDS011;20538;51.528;9.942;2023-05-23T00:50:43;18.40;;;13.43;;
34278;SDS011;20538;51.528;9.942;2023-05-23T00:53:09;22.10;;;12.27;;
34278;SDS011;20538;51.528;9.942;2023-05-23T00:55:36;17.77;;;12.60;;
34278;SDS011;20538;51.528;9.942;2023-05-23T00:58:05;17.73;;;12.57;;
34278;SDS011;20538;51.528;9.942;2023-05-23T01:00:31;15.93;;;11.95;;
34278;SDS011;20538;51.528;9.942;2023-05-23T01:02:58;15.82;;;11.00;;
34278;SDS011;20538;51.528;9.942;2023-05-23T01:05:27;17.08;;;10.75;;
34278;SDS011;20538;51.528;9.942;2023-05-23T01:07:53;14.70;;;11.55;;
34278;SDS011;20538;51.528;9.942;2023-05-23T01:10:20;18.42;;;11.45;;
34278;SDS011;20538;51.528;9.942;2023-05-23T01:12:52;15.80;;;11.57;;
34278;SDS011;20538;51.528;9.942;2023-05-23T01:15:22;17.30;;;12.25;;
34278;SDS011;20538;51.528;9.942;2023-05-23T01:18:06;18.02;;;11.60;;
34278;SDS011;20538;51.528;9.942;2023-05-23T01:20:40;16.23;;;11.50;;
34278;SDS011;20538;51.528;9.942;2023-05-23T01:23:24;16.08;;;12.63;;
34278;SDS011;20538;51.528;9.942;2023-05-23T01:29:01;19.23;;;12.00;;
34278;SDS011;20538;51.528;9.942;2023-05-23T01:31:34;18.25;;;12.25;;
34278;SDS011;20538;51.528;9.942;2023-05-23T01:34:03;17.00;;;13.23;;
34278;SDS011;20538;51.528;9.942;2023-05-23T01:36:31;19.40;;;13.68;;
34278;SDS011;20538;51.528;9.942;2023-05-23T01:38:59;21.95;;;13.70;;
34278;SDS011;20538;51.528;9.942;2023-05-23T01:41:25;19.48;;;14.10;;
34278;SDS011;20538;51.528;9.942;2023-05-23T01:43:52;23.10;;;13.65;;
34278;SDS011;20538;51.528;9.942;2023-05-23T01:46:18;20.80;;;14.65;;
34278;SDS011;20538;51.528;9.942;2023-05-23T01:48:45;20.90;;;13.77;;
34278;SDS011;20538;51.528;9.942;2023-05-23T01:51:11;18.95;;;14.30;;
34278;SDS011;20538;51.528;9.942;2023-05-23T01:53:38;25.80;;;17.40;;
34278;SDS011;20538;51.528;9.942;2023-05-23T01:56:04;31.15;;;20.73;;
34278;SDS011;20538;51.528;9.942;2023-05-23T01:58:30;32.60;;;22.52;;
34278;SDS011;20538;51.528;9.942;2023-05-23T02:00:56;37.08;;;24.63;;
34278;SDS011;20538;51.528;9.942;2023-05-23T02:03:22;37.15;;;25.23;;
34278;SDS011;20538;51.528;9.942;2023-05-23T02:05:47;41.72;;;26.42;;
34278;SDS011;20538;51.528;9.942;2023-05-23T02:08:13;44.75;;;25.98;;
34278;SDS011;20538;51.528;9.942;2023-05-23T02:10:39;38.80;;;26.42;;
34278;SDS011;20538;51.528;9.942;2023-05-23T02:13:04;42.88;;;27.17;;
34278;SDS011;20538;51.528;9.942;2023-05-23T02:15:30;44.08;;;29.17;;
34278;SDS011;20538;51.528;9.942;2023-05-23T02:17:55;46.45;;;29.50;;
34278;SDS011;20538;51.528;9.942;2023-05-23T02:20:21;44.60;;;27.92;;
34278;SDS011;20538;51.528;9.942;2023-05-23T02:22:47;47.38;;;27.42;;
34278;SDS011;20538;51.528;9.942;2023-05-23T02:25:12;37.85;;;25.45;;
34278;SDS011;20538;51.528;9.942;2023-05-23T02:27:39;39.42;;;23.17;;
34278;SDS011;20538;51.528;9.942;2023-05-23T02:30:05;35.35;;;22.70;;
34278;SDS011;20538;51.528;9.942;2023-05-23T02:32:31;34.97;;;23.10;;
34278;SDS011;20538;51.528;9.942;2023-05-23T02:34:57;35.70;;;23.13;;
34278;SDS011;20538;51.528;9.942;2023-05-23T02:37:23;35.03;;;21.42;;
34278;SDS011;20538;51.528;9.942;2023-05-23T02:39:49;34.10;;;20.45;;
34278;SDS011;20538;51.528;9.942;2023-05-23T02:42:14;26.65;;;18.77;;
34278;SDS011;20538;51.528;9.942;2023-05-23T02:44:40;27.20;;;18.48;;
34278;SDS011;20538;51.528;9.942;2023-05-23T02:47:05;30.10;;;18.25;;
34278;SDS011;20538;51.528;9.942;2023-05-23T02:49:31;21.65;;;15.65;;
34278;SDS011;20538;51.528;9.942;2023-05-23T02:51:57;25.27;;;16.38;;
34278;SDS011;20538;51.528;9.942;2023-05-23T02:54:22;24.63;;;15.68;;
34278;SDS011;20538;51.528;9.942;2023-05-23T02:56:48;23.05;;;14.90;;
34278;SDS011;20538;51.528;9.942;2023-05-23T02:59:16;24.55;;;15.23;;
34278;SDS011;20538;51.528;9.942;2023-05-23T03:01:41;23.95;;;14.23;;
34278;SDS011;20538;51.528;9.942;2023-05-23T03:04:07;20.33;;;14.05;;
34278;SDS011;20538;51.528;9.942;2023-05-23T03:06:33;20.42;;;13.80;;
34278;SDS011;20538;51.528;9.942;2023-05-23T03:09:00;24.30;;;13.88;;
34278;SDS011;20538;51.528;9.942;2023-05-23T03:11:26;20.67;;;12.65;;
34278;SDS011;20538;51.528;9.942;2023-05-23T03:13:53;19.27;;;12.68;;
34278;SDS011;20538;51.528;9.942;2023-05-23T03:16:20;19.58;;;12.98;;
34278;SDS011;20538;51.528;9.942;2023-05-23T03:18:46;18.40;;;12.82;;
34278;SDS011;20538;51.528;9.942;2023-05-23T03:21:12;22.65;;;12.93;;
34278;SDS011;20538;51.528;9.942;2023-05-23T03:23:38;18.95;;;12.23;;
34278;SDS011;20538;51.528;9.942;2023-05-23T03:26:03;17.30;;;12.32;;
34278;SDS011;20538;51.528;9.942;2023-05-23T03:28:30;21.42;;;12.75;;
34278;SDS011;20538;51.528;9.942;2023-05-23T03:30:56;19.85;;;13.15;;
34278;SDS011;20538;51.528;9.942;2023-05-23T03:33:22;19.35;;;11.98;;
34278;SDS011;20538;51.528;9.942;2023-05-23T03:35:48;17.48;;;11.98;;
34278;SDS011;20538;51.528;9.942;2023-05-23T03:38:14;23.02;;;12.70;;
34278;SDS011;20538;51.528;9.942;2023-05-23T03:40:40;20.10;;;12.43;;
34278;SDS011;20538;51.528;9.942;2023-05-23T03:43:06;22.60;;;12.30;;
34278;SDS011;20538;51.528;9.942;2023-05-23T03:45:32;20.70;;;12.65;;
34278;SDS011;20538;51.528;9.942;2023-05-23T03:47:59;22.58;;;13.90;;
34278;SDS011;20538;51.528;9.942;2023-05-23T03:50:24;21.52;;;12.93;;
34278;SDS011;20538;51.528;9.942;2023-05-23T03:52:50;22.33;;;13.43;;
34278;SDS011;20538;51.528;9.942;2023-05-23T03:55:16;22.85;;;13.02;;
34278;SDS011;20538;51.528;9.942;2023-05-23T03:57:46;18.70;;;12.85;;
34278;SDS011;20538;51.528;9.942;2023-05-23T04:00:12;18.52;;;12.18;;
34278;SDS011;20538;51.528;9.942;2023-05-23T04:02:39;22.25;;;12.50;;
34278;SDS011;20538;51.528;9.942;2023-05-23T04:05:05;19.33;;;12.20;;
34278;SDS011;20538;51.528;9.942;2023-05-23T04:07:31;17.58;;;12.32;;
34278;SDS011;20538;51.528;9.942;2023-05-23T04:10:00;18.30;;;12.25;;
34278;SDS011;20538;51.528;9.942;2023-05-23T04:12:27;17.80;;;12.40;;
34278;SDS011;20538;51.528;9.942;2023-05-23T04:14:55;20.70;;;12.27;;
34278;SDS011;20538;51.528;9.942;2023-05-23T04:17:22;22.50;;;14.30;;
34278;SDS011;20538;51.528;9.942;2023-05-23T04:19:48;19.25;;;12.77;;
34278;SDS011;20538;51.528;9.942;2023-05-23T04:22:14;21.45;;;13.10;;
34278;SDS011;20538;51.528;9.942;2023-05-23T04:24:40;22.45;;;14.15;;
34278;SDS011;20538;51.528;9.942;2023-05-23T04:27:06;19.77;;;12.95;;
34278;SDS011;20538;51.528;9.942;2023-05-23T04:29:33;18.15;;;12.20;;
34278;SDS011;20538;51.528;9.942;2023-05-23T04:32:00;19.67;;;13.07;;
34278;SDS011;20538;51.528;9.942;2023-05-23T04:34:26;19.27;;;12.70;;
34278;SDS011;20538;51.528;9.942;2023-05-23T04:36:52;17.83;;;11.00;;
34278;SDS011;20538;51.528;9.942;2023-05-23T04:39:18;16.98;;;10.43;;
34278;SDS011;20538;51.528;9.942;2023-05-23T04:41:44;14.55;;;10.07;;
34278;SDS011;20538;51.528;9.942;2023-05-23T04:44:10;12.73;;;8.88;;
34278;SDS011;20538;51.528;9.942;2023-05-23T04:46:36;13.57;;;8.32;;
34278;SDS011;20538;51.528;9.942;2023-05-23T04:49:06;11.75;;;8.10;;
34278;SDS011;20538;51.528;9.942;2023-05-23T04:51:32;11.52;;;7.88;;
34278;SDS011;20538;51.528;9.942;2023-05-23T04:53:59;9.77;;;6.63;;
34278;SDS011;20538;51.528;9.942;2023-05-23T04:56:25;12.38;;;7.40;;
34278;SDS011;20538;51.528;9.942;2023-05-23T04:58:52;11.82;;;7.60;;
34278;SDS011;20538;51.528;9.942;2023-05-23T05:01:18;12.60;;;7.13;;
34278;SDS011;20538;51.528;9.942;2023-05-23T05:03:44;10.10;;;6.85;;
34278;SDS011;20538;51.528;9.942;2023-05-23T05:06:09;10.57;;;6.75;;
34278;SDS011;20538;51.528;9.942;2023-05-23T05:08:35;11.32;;;6.85;;
34278;SDS011;20538;51.528;9.942;2023-05-23T05:11:01;9.00;;;7.22;;
34278;SDS011;20538;51.528;9.942;2023-05-23T05:13:26;11.63;;;7.85;;
34278;SDS011;20538;51.528;9.942;2023-05-23T05:15:52;9.23;;;6.70;;
34278;SDS011;20538;51.528;9.942;2023-05-23T05:18:18;10.32;;;7.43;;
34278;SDS011;20538;51.528;9.942;2023-05-23T05:20:43;9.88;;;7.15;;
34278;SDS011;20538;51.528;9.942;2023-05-23T05:23:09;9.85;;;7.13;;
34278;SDS011;20538;51.528;9.942;2023-05-23T05:25:35;10.50;;;6.95;;
34278;SDS011;20538;51.528;9.942;2023-05-23T05:28:02;10.27;;;6.93;;
34278;SDS011;20538;51.528;9.942;2023-05-23T05:30:30;14.18;;;7.28;;
34278;SDS011;20538;51.528;9.942;2023-05-23T05:32:59;8.23;;;5.88;;
34278;SDS011;20538;51.528;9.942;2023-05-23T05:35:28;8.00;;;6.00;;
34278;SDS011;20538;51.528;9.942;2023-05-23T05:37:56;9.82;;;5.63;;
34278;SDS011;20538;51.528;9.942;2023-05-23T05:40:22;8.90;;;5.72;;
34278;SDS011;20538;51.528;9.942;2023-05-23T05:42:48;9.93;;;5.55;;
34278;SDS011;20538;51.528;9.942;2023-05-23T05:45:14;7.32;;;5.95;;
34278;SDS011;20538;51.528;9.942;2023-05-23T05:47:39;9.65;;;5.75;;
34278;SDS011;20538;51.528;9.942;2023-05-23T05:50:05;7.50;;;5.88;;
34278;SDS011;20538;51.528;9.942;2023-05-23T05:52:33;9.35;;;5.32;;
34278;SDS011;20538;51.528;9.942;2023-05-23T05:55:06;9.20;;;6.05;;
34278;SDS011;20538;51.528;9.942;2023-05-23T05:57:37;10.77;;;6.18;;
34278;SDS011;20538;51.528;9.942;2023-05-23T06:00:13;9.05;;;5.55;;
34278;SDS011;20538;51.528;9.942;2023-05-23T06:02:42;10.48;;;5.88;;
34278;SDS011;20538;51.528;9.942;2023-05-23T06:05:10;9.05;;;5.75;;
34278;SDS011;20538;51.528;9.942;2023-05-23T06:07:40;8.30;;;5.10;;
34278;SDS011;20538;51.528;9.942;2023-05-23T06:10:06;7.63;;;5.63;;
34278;SDS011;20538;51.528;9.942;2023-05-23T06:12:33;10.48;;;6.57;;
34278;SDS011;20538;51.528;9.942;2023-05-23T06:14:59;11.00;;;6.50;;
34278;SDS011;20538;51.528;9.942;2023-05-23T06:17:25;14.40;;;6.15;;
34278;SDS011;20538;51.528;9.942;2023-05-23T06:19:50;18.27;;;6.57;;
34278;SDS011;20538;51.528;9.942;2023-05-23T06:22:16;11.18;;;6.32;;
34278;SDS011;20538;51.528;9.942;2023-05-23T06:24:42;13.35;;;6.20;;
34278;SDS011;20538;51.528;9.942;2023-05-23T06:27:08;11.07;;;6.55;;
34278;SDS011;20538;51.528;9.942;2023-05-23T06:29:33;9.48;;;6.40;;
34278;SDS011;20538;51.528;9.942;2023-05-23T06:32:02;10.45;;;6.75;;
34278;SDS011;20538;51.528;9.942;2023-05-23T06:34:27;10.93;;;6.43;;
34278;SDS011;20538;51.528;9.942;2023-05-23T06:36:53;15.18;;;6.22;;
34278;SDS011;20538;51.528;9.942;2023-05-23T06:39:19;12.60;;;6.93;;
34278;SDS011;20538;51.528;9.942;2023-05-23T06:41:45;13.63;;;6.72;;
34278;SDS011;20538;51.528;9.942;2023-05-23T06:44:11;7.75;;;5.75;;
34278;SDS011;20538;51.528;9.942;2023-05-23T06:46:39;8.25;;;5.95;;
34278;SDS011;20538;51.528;9.942;2023-05-23T06:49:06;9.63;;;5.55;;
34278;SDS011;20538;51.528;9.942;2023-05-23T06:51:32;16.05;;;6.57;;
34278;SDS011;20538;51.528;9.942;2023-05-23T06:53:58;11.32;;;6.43;;
34278;SDS011;20538;51.528;9.942;2023-05-23T06:56:23;10.82;;;5.97;;
34278;SDS011;20538;51.528;9.942;2023-05-23T06:58:50;7.80;;;5.35;;
34278;SDS011;20538;51.528;9.942;2023-05-23T07:01:15;8.70;;;6.13;;
34278;SDS011;20538;51.528;9.942;2023-05-23T07:03:41;7.63;;;5.88;;
34278;SDS011;20538;51.528;9.942;2023-05-23T07:06:09;7.18;;;5.30;;
34278;SDS011;20538;51.528;9.942;2023-05-23T07:08:35;7.20;;;5.95;;
34278;SDS011;20538;51.528;9.942;2023-05-23T07:11:02;8.30;;;6.43;;
34278;SDS011;20538;51.528;9.942;2023-05-23T07:13:28;8.75;;;6.25;;
34278;SDS011;20538;51.528;9.942;2023-05-23T07:15:55;9.27;;;6.63;;
34278;SDS011;20538;51.528;9.942;2023-05-23T07:18:21;12.13;;;6.43;;
34278;SDS011;20538;51.528;9.942;2023-05-23T07:20:47;10.43;;;7.20;;
34278;SDS011;20538;51.528;9.942;2023-05-23T07:23:14;8.98;;;6.88;;
34278;SDS011;20538;51.528;9.942;2023-05-23T07:25:40;9.15;;;6.35;;
34278;SDS011;20538;51.528;9.942;2023-05-23T07:28:07;9.13;;;6.80;;
34278;SDS011;20538;51.528;9.942;2023-05-23T07:30:33;7.90;;;5.60;;
34278;SDS011;20538;51.528;9.942;2023-05-23T07:32:59;10.90;;;6.88;;
34278;SDS011;20538;51.528;9.942;2023-05-23T07:35:24;13.52;;;7.10;;
34278;SDS011;20538;51.528;9.942;2023-05-23T07:37:53;8.82;;;6.55;;
34278;SDS011;20538;51.528;9.942;2023-05-23T07:40:22;12.45;;;7.55;;
34278;SDS011;20538;51.528;9.942;2023-05-23T07:42:48;9.45;;;6.40;;
34278;SDS011;20538;51.528;9.942;2023-05-23T07:45:14;11.48;;;7.35;;
34278;SDS011;20538;51.528;9.942;2023-05-23T07:47:40;13.25;;;8.10;;
34278;SDS011;20538;51.528;9.942;2023-05-23T07:50:06;12.68;;;7.00;;
34278;SDS011;20538;51.528;9.942;2023-05-23T07:52:32;12.43;;;7.60;;
34278;SDS011;20538;51.528;9.942;2023-05-23T07:54:58;10.77;;;7.53;;
34278;SDS011;20538;51.528;9.942;2023-05-23T07:57:24;14.80;;;8.05;;
34278;SDS011;20538;51.528;9.942;2023-05-23T07:59:50;11.43;;;7.45;;
34278;SDS011;20538;51.528;9.942;2023-05-23T08:02:16;10.95;;;7.25;;
34278;SDS011;20538;51.528;9.942;2023-05-23T08:04:42;11.85;;;7.00;;
34278;SDS011;20538;51.528;9.942;2023-05-23T08:07:09;9.20;;;7.05;;
34278;SDS011;20538;51.528;9.942;2023-05-23T08:09:35;10.15;;;7.00;;
34278;SDS011;20538;51.528;9.942;2023-05-23T08:12:01;11.00;;;6.80;;
34278;SDS011;20538;51.528;9.942;2023-05-23T08:14:27;12.45;;;7.90;;
34278;SDS011;20538;51.528;9.942;2023-05-23T08:16:54;9.57;;;6.07;;
34278;SDS011;20538;51.528;9.942;2023-05-23T08:19:20;11.32;;;7.25;;
34278;SDS011;20538;51.528;9.942;2023-05-23T08:21:46;15.63;;;7.10;;
34278;SDS011;20538;51.528;9.942;2023-05-23T08:24:13;10.00;;;6.40;;
34278;SDS011;20538;51.528;9.942;2023-05-23T08:26:50;12.13;;;6.57;;
34278;SDS011;20538;51.528;9.942;2023-05-23T08:29:16;14.73;;;7.20;;
34278;SDS011;20538;51.528;9.942;2023-05-23T08:31:42;8.98;;;6.45;;
34278;SDS011;20538;51.528;9.942;2023-05-23T08:34:08;12.60;;;7.07;;
34278;SDS011;20538;51.528;9.942;2023-05-23T08:36:34;10.43;;;7.55;;
34278;SDS011;20538;51.528;9.942;2023-05-23T08:39:00;13.57;;;7.32;;
34278;SDS011;20538;51.528;9.942;2023-05-23T08:41:26;9.80;;;6.88;;
34278;SDS011;20538;51.528;9.942;2023-05-23T08:43:54;10.57;;;6.70;;
34278;SDS011;20538;51.528;9.942;2023-05-23T08:46:20;10.80;;;6.88;;
34278;SDS011;20538;51.528;9.942;2023-05-23T08:48:50;9.90;;;6.95;;
34278;SDS011;20538;51.528;9.942;2023-05-23T08:51:18;11.40;;;6.03;;
34278;SDS011;20538;51.528;9.942;2023-05-23T08:53:46;8.90;;;5.70;;
34278;SDS011;20538;51.528;9.942;2023-05-23T08:56:12;8.93;;;5.97;;
34278;SDS011;20538;51.528;9.942;2023-05-23T08:58:40;9.43;;;5.10;;
34278;SDS011;20538;51.528;9.942;2023-05-23T09:01:07;10.23;;;6.05;;
34278;SDS011;20538;51.528;9.942;2023-05-23T09:03:37;8.60;;;5.82;;
34278;SDS011;20538;51.528;9.942;2023-05-23T09:06:07;9.32;;;5.50;;
34278;SDS011;20538;51.528;9.942;2023-05-23T09:08:34;9.38;;;5.68;;
34278;SDS011;20538;51.528;9.942;2023-05-23T09:11:03;9.68;;;5.65;;
34278;SDS011;20538;51.528;9.942;2023-05-23T09:13:30;7.90;;;5.57;;
34278;SDS011;20538;51.528;9.942;2023-05-23T09:21:01;9.80;;;4.78;;
34278;SDS011;20538;51.528;9.942;2023-05-23T09:23:30;8.90;;;4.47;;
34278;SDS011;20538;51.528;9.942;2023-05-23T09:26:06;6.32;;;4.50;;
34278;SDS011;20538;51.528;9.942;2023-05-23T09:28:34;7.97;;;4.60;;
34278;SDS011;20538;51.528;9.942;2023-05-23T09:31:01;8.15;;;4.25;;
34278;SDS011;20538;51.528;9.942;2023-05-23T09:33:35;4.78;;;3.30;;
34278;SDS011;20538;51.528;9.942;2023-05-23T09:36:05;6.20;;;4.22;;
34278;SDS011;20538;51.528;9.942;2023-05-23T09:38:31;7.53;;;4.22;;
34278;SDS011;20538;51.528;9.942;2023-05-23T09:41:02;6.85;;;3.75;;
34278;SDS011;20538;51.528;9.942;2023-05-23T09:43:30;6.85;;;4.32;;
34278;SDS011;20538;51.528;9.942;2023-05-23T09:46:14;6.97;;;4.78;;
34278;SDS011;20538;51.528;9.942;2023-05-23T09:48:41;7.88;;;4.63;;
34278;SDS011;20538;51.528;9.942;2023-05-23T09:51:16;7.28;;;4.75;;
34278;SDS011;20538;51.528;9.942;2023-05-23T09:53:45;9.52;;;4.65;;
34278;SDS011;20538;51.528;9.942;2023-05-23T09:56:14;6.15;;;4.50;;
34278;SDS011;20538;51.528;9.942;2023-05-23T09:58:50;8.50;;;5.13;;
34278;SDS011;20538;51.528;9.942;2023-05-23T10:01:17;7.40;;;4.55;;
34278;SDS011;20538;51.528;9.942;2023-05-23T10:03:50;8.38;;;4.97;;
34278;SDS011;20538;51.528;9.942;2023-05-23T10:08:58;7.75;;;5.60;;
34278;SDS011;20538;51.528;9.942;2023-05-23T10:14:03;10.50;;;5.40;;
34278;SDS011;20538;51.528;9.942;2023-05-23T10:19:05;9.65;;;5.82;;
34278;SDS011;20538;51.528;9.942;2023-05-23T10:21:42;11.73;;;6.18;;
34278;SDS011;20538;51.528;9.942;2023-05-23T10:24:09;11.00;;;5.80;;
34278;SDS011;20538;51.528;9.942;2023-05-23T10:26:36;10.95;;;5.65;;
34278;SDS011;20538;51.528;9.942;2023-05-23T10:29:02;7.88;;;5.32;;
34278;SDS011;20538;51.528;9.942;2023-05-23T10:31:29;11.93;;;5.25;;
34278;SDS011;20538;51.528;9.942;2023-05-23T10:33:57;8.38;;;5.63;;
34278;SDS011;20538;51.528;9.942;2023-05-23T10:39:40;11.32;;;5.65;;
34278;SDS011;20538;51.528;9.942;2023-05-23T10:42:21;8.55;;;4.63;;
34278;SDS011;20538;51.528;9.942;2023-05-23T10:45:15;6.40;;;3.78;;
34278;SDS011;20538;51.528;9.942;2023-05-23T10:47:45;8.52;;;4.65;;
34278;SDS011;20538;51.528;9.942;2023-05-23T10:50:31;9.80;;;4.05;;
34278;SDS011;20538;51.528;9.942;2023-05-23T10:52:59;5.47;;;3.33;;
34278;SDS011;20538;51.528;9.942;2023-05-23T10:55:30;5.25;;;3.35;;
34278;SDS011;20538;51.528;9.942;2023-05-23T10:58:10;5.50;;;3.47;;
34278;SDS011;20538;51.528;9.942;2023-05-23T11:00:41;4.85;;;2.40;;
34278;SDS011;20538;51.528;9.942;2023-05-23T11:03:16;3.50;;;2.53;;
34278;SDS011;20538;51.528;9.942;2023-05-23T11:05:46;4.18;;;1.95;;
34278;SDS011;20538;51.528;9.942;2023-05-23T11:08:18;3.60;;;2.23;;
34278;SDS011;20538;51.528;9.942;2023-05-23T11:11:03;4.95;;;1.83;;
34278;SDS011;20538;51.528;9.942;2023-05-23T11:16:22;2.72;;;1.55;;
34278;SDS011;20538;51.528;9.942;2023-05-23T11:21:43;5.07;;;1.92;;
34278;SDS011;20538;51.528;9.942;2023-05-23T11:24:10;3.17;;;1.67;;
34278;SDS011;20538;51.528;9.942;2023-05-23T11:26:36;3.95;;;1.52;;
34278;SDS011;20538;51.528;9.942;2023-05-23T11:29:03;3.30;;;1.83;;
34278;SDS011;20538;51.528;9.942;2023-05-23T11:31:39;2.63;;;1.48;;
34278;SDS011;20538;51.528;9.942;2023-05-23T11:34:05;1.75;;;1.45;;
34278;SDS011;20538;51.528;9.942;2023-05-23T11:36:31;4.45;;;1.35;;
34278;SDS011;20538;51.528;9.942;2023-05-23T11:39:00;1.92;;;1.00;;
34278;SDS011;20538;51.528;9.942;2023-05-23T11:41:27;7.10;;;1.25;;
34278;SDS011;20538;51.528;9.942;2023-05-23T11:44:00;1.67;;;1.10;;
34278;SDS011;20538;51.528;9.942;2023-05-23T11:46:26;1.98;;;1.00;;
34278;SDS011;20538;51.528;9.942;2023-05-23T11:48:55;1.20;;;0.93;;
34278;SDS011;20538;51.528;9.942;2023-05-23T11:51:21;2.33;;;1.48;;
34278;SDS011;20538;51.528;9.942;2023-05-23T11:53:52;4.45;;;1.60;;
34278;SDS011;20538;51.528;9.942;2023-05-23T11:56:18;5.32;;;1.95;;
34278;SDS011;20538;51.528;9.942;2023-05-23T11:58:45;4.10;;;2.08;;
34278;SDS011;20538;51.528;9.942;2023-05-23T12:01:13;2.38;;;1.73;;
34278;SDS011;20538;51.528;9.942;2023-05-23T12:03:45;6.07;;;2.35;;
34278;SDS011;20538;51.528;9.942;2023-05-23T12:06:19;4.38;;;2.70;;
34278;SDS011;20538;51.528;9.942;2023-05-23T12:08:47;3.55;;;2.50;;
34278;SDS011;20538;51.528;9.942;2023-05-23T12:11:13;4.60;;;2.80;;
34278;SDS011;20538;51.528;9.942;2023-05-23T12:13:39;5.55;;;2.67;;
34278;SDS011;20538;51.528;9.942;2023-05-23T12:16:06;3.40;;;3.08;;
34278;SDS011;20538;51.528;9.942;2023-05-23T12:18:32;7.75;;;4.47;;
34278;SDS011;20538;51.528;9.942;2023-05-23T12:21:03;9.43;;;5.28;;
34278;SDS011;20538;51.528;9.942;2023-05-23T12:23:31;7.15;;;5.00;;
34278;SDS011;20538;51.528;9.942;2023-05-23T12:25:57;8.15;;;5.55;;
34278;SDS011;20538;51.528;9.942;2023-05-23T12:28:42;8.45;;;4.80;;
34278;SDS011;20538;51.528;9.942;2023-05-23T12:33:42;7.03;;;5.13;;
34278;SDS011;20538;51.528;9.942;2023-05-23T12:36:10;9.50;;;5.18;;
34278;SDS011;20538;51.528;9.942;2023-05-23T12:38:36;8.90;;;5.05;;
34278;SDS011;20538;51.528;9.942;2023-05-23T12:41:11;10.75;;;6.35;;
34278;SDS011;20538;51.528;9.942;2023-05-23T12:43:40;11.57;;;6.35;;
34278;SDS011;20538;51.528;9.942;2023-05-23T12:46:13;12.68;;;5.70;;
34278;SDS011;20538;51.528;9.942;2023-05-23T12:48:39;17.25;;;6.47;;
34278;SDS011;20538;51.528;9.942;2023-05-23T12:51:05;9.75;;;5.28;;
34278;SDS011;20538;51.528;9.942;2023-05-23T12:53:30;11.43;;;6.05;;
34278;SDS011;20538;51.528;9.942;2023-05-23T12:55:56;10.13;;;5.93;;
34278;SDS011;20538;51.528;9.942;2023-05-23T12:58:22;10.48;;;6.15;;
34278;SDS011;20538;51.528;9.942;2023-05-23T13:00:48;10.07;;;5.72;;
34278;SDS011;20538;51.528;9.942;2023-05-23T13:03:13;10.60;;;6.50;;
34278;SDS011;20538;51.528;9.942;2023-05-23T13:05:39;8.80;;;5.95;;
34278;SDS011;20538;51.528;9.942;2023-05-23T13:08:05;12.57;;;6.07;;
34278;SDS011;20538;51.528;9.942;2023-05-23T13:10:31;9.10;;;5.80;;
34278;SDS011;20538;51.528;9.942;2023-05-23T13:12:57;5.38;;;4.10;;
34278;SDS011;20538;51.528;9.942;2023-05-23T13:15:22;10.50;;;5.22;;
34278;SDS011;20538;51.528;9.942;2023-05-23T13:17:48;7.93;;;5.63;;
34278;SDS011;20538;51.528;9.942;2023-05-23T13:20:13;8.00;;;5.60;;
34278;SDS011;20538;51.528;9.942;2023-05-23T13:22:39;12.50;;;5.38;;
34278;SDS011;20538;51.528;9.942;2023-05-23T13:25:06;9.38;;;5.68;;
34278;SDS011;20538;51.528;9.942;2023-05-23T13:27:32;12.73;;;5.65;;
34278;SDS011;20538;51.528;9.942;2023-05-23T13:29:58;11.18;;;5.43;;
34278;SDS011;20538;51.528;9.942;2023-05-23T13:32:24;9.13;;;5.45;;
34278;SDS011;20538;51.528;9.942;2023-05-23T13:34:50;8.48;;;5.20;;
34278;SDS011;20538;51.528;9.942;2023-05-23T13:37:15;12.75;;;5.80;;
34278;SDS011;20538;51.528;9.942;2023-05-23T13:39:41;10.77;;;5.75;;
34278;SDS011;20538;51.528;9.942;2023-05-23T13:42:07;10.65;;;6.35;;
34278;SDS011;20538;51.528;9.942;2023-05-23T13:44:33;11.85;;;5.95;;
34278;SDS011;20538;51.528;9.942;2023-05-23T13:47:08;10.88;;;6.63;;
34278;SDS011;20538;51.528;9.942;2023-05-23T13:49:35;13.15;;;6.90;;
34278;SDS011;20538;51.528;9.942;2023-05-23T13:52:01;12.23;;;7.00;;
34278;SDS011;20538;51.528;9.942;2023-05-23T13:54:26;10.13;;;6.30;;
34278;SDS011;20538;51.528;9.942;2023-05-23T13:56:52;13.80;;;6.07;;
34278;SDS011;20538;51.528;9.942;2023-05-23T13:59:18;11.27;;;6.90;;
34278;SDS011;20538;51.528;9.942;2023-05-23T14:01:45;12.00;;;5.70;;
34278;SDS011;20538;51.528;9.942;2023-05-23T14:04:11;10.98;;;4.03;;
34278;SDS011;20538;51.528;9.942;2023-05-23T14:06:37;13.98;;;6.32;;
34278;SDS011;20538;51.528;9.942;2023-05-23T14:09:03;14.20;;;6.38;;
34278;SDS011;20538;51.528;9.942;2023-05-23T14:11:30;13.00;;;5.68;;
34278;SDS011;20538;51.528;9.942;2023-05-23T14:13:56;13.63;;;5.80;;
34278;SDS011;20538;51.528;9.942;2023-05-23T14:16:21;12.60;;;5.60;;
34278;SDS011;20538;51.528;9.942;2023-05-23T14:18:47;15.88;;;8.05;;
34278;SDS011;20538;51.528;9.942;2023-05-23T14:21:13;14.43;;;5.82;;
34278;SDS011;20538;51.528;9.942;2023-05-23T14:23:38;14.35;;;5.65;;
34278;SDS011;20538;51.528;9.942;2023-05-23T14:26:04;16.67;;;6.03;;
34278;SDS011;20538;51.528;9.942;2023-05-23T14:28:30;15.98;;;5.90;;
34278;SDS011;20538;51.528;9.942;2023-05-23T14:30:56;11.57;;;5.40;;
34278;SDS011;20538;51.528;9.942;2023-05-23T14:33:23;12.95;;;5.57;;
34278;SDS011;20538;51.528;9.942;2023-05-23T14:35:51;12.80;;;5.80;;
34278;SDS011;20538;51.528;9.942;2023-05-23T14:38:17;14.27;;;4.95;;
34278;SDS011;20538;51.528;9.942;2023-05-23T14:40:43;10.32;;;5.20;;
34278;SDS011;20538;51.528;9.942;2023-05-23T14:43:09;12.00;;;4.35;;
34278;SDS011;20538;51.528;9.942;2023-05-23T14:45:35;11.93;;;5.35;;
34278;SDS011;20538;51.528;9.942;2023-05-23T14:48:01;14.65;;;5.25;;
34278;SDS011;20538;51.528;9.942;2023-05-23T14:50:26;10.80;;;4.18;;
34278;SDS011;20538;51.528;9.942;2023-05-23T14:52:52;16.13;;;5.50;;
34278;SDS011;20538;51.528;9.942;2023-05-23T14:55:18;14.52;;;4.13;;
34278;SDS011;20538;51.528;9.942;2023-05-23T14:57:44;14.88;;;4.40;;
34278;SDS011;20538;51.528;9.942;2023-05-23T15:00:10;14.68;;;4.55;;
34278;SDS011;20538;51.528;9.942;2023-05-23T15:02:36;15.55;;;4.85;;
34278;SDS011;20538;51.528;9.942;2023-05-23T15:05:02;17.00;;;4.35;;